Time;durP1;ratioP1;P1;durP2;ratioP2;P2;SDS_P1;SDS_P2;PMS_P1;PMS_P2;Temp;Humidity;BMP_temperature;BMP_pressure;BME280_temperature;BME280_humidity;BME280_pressure;Samples;Min_cycle;Max_cycle;Signal;HPM_P1;HPM_P2
2023/03/09 00:00:48;;;;;;;22.90;18.93;;;;;;;;;;5240337;28;20044;-70
2023/03/09 00:03:19;;;;;;;20.47;17.00;;;;;;;;;;5240820;28;20021;-71
2023/03/09 00:05:52;;;;;;;20.20;16.83;;;;;;;;;;5239970;28;20480;-71
2023/03/09 00:08:24;;;;;;;23.13;18.13;;;;;;;;;;5240575;28;20021;-71
2023/03/09 00:10:55;;;;;;;20.43;16.37;;;;;;;;;;5240787;28;20013;-71
2023/03/09 00:13:26;;;;;;;20.10;17.33;;;;;;;;;;5239108;28;20448;-70
2023/03/09 00:16:06;;;;;;;19.87;16.57;;;;;;;;;;5240495;28;20027;-71
2023/03/09 00:18:37;;;;;;;24.33;19.63;;;;;;;;;;5239389;28;20438;-70
2023/03/09 00:21:14;;;;;;;22.20;19.17;;;;;;;;;;5240809;28;20020;-71
2023/03/09 00:23:45;;;;;;;25.23;20.07;;;;;;;;;;5239922;28;20440;-71
2023/03/09 00:26:17;;;;;;;25.90;21.03;;;;;;;;;;5239820;28;20057;-71
2023/03/09 00:28:48;;;;;;;21.27;17.90;;;;;;;;;;5240344;28;20068;-71
2023/03/09 00:31:19;;;;;;;24.10;19.73;;;;;;;;;;5240578;28;20057;-71
2023/03/09 00:33:50;;;;;;;24.63;20.33;;;;;;;;;;5239415;28;20087;-70
2023/03/09 00:36:21;;;;;;;23.23;18.73;;;;;;;;;;5240081;28;20029;-71
2023/03/09 00:38:53;;;;;;;23.00;19.10;;;;;;;;;;5240171;28;20061;-70
2023/03/09 00:41:30;;;;;;;24.70;19.77;;;;;;;;;;5239281;28;20017;-71
2023/03/09 00:44:02;;;;;;;24.43;20.63;;;;;;;;;;5240297;28;20124;-71
2023/03/09 00:46:34;;;;;;;23.90;19.83;;;;;;;;;;5239059;28;20037;-70
2023/03/09 00:49:06;;;;;;;22.87;19.47;;;;;;;;;;5240467;28;20025;-72
2023/03/09 00:51:37;;;;;;;25.00;18.97;;;;;;;;;;5239803;28;20152;-71
2023/03/09 00:54:10;;;;;;;22.93;18.23;;;;;;;;;;5242247;28;20029;-70
2023/03/09 00:56:41;;;;;;;23.00;18.40;;;;;;;;;;5243959;28;20016;-71
2023/03/09 00:59:12;;;;;;;22.57;19.53;;;;;;;;;;5244286;28;20026;-70
2023/03/09 01:01:44;;;;;;;24.47;19.33;;;;;;;;;;5243392;28;20406;-71
2023/03/09 01:04:15;;;;;;;22.60;17.90;;;;;;;;;;5244400;28;20025;-70
2023/03/09 01:06:46;;;;;;;23.87;18.63;;;;;;;;;;5243911;28;20226;-71
2023/03/09 01:09:17;;;;;;;22.73;17.83;;;;;;;;;;5243353;28;20025;-71
2023/03/09 01:11:48;;;;;;;20.16;17.48;;;;;;;;;;5243582;28;20163;-70
2023/03/09 01:14:20;;;;;;;19.27;16.53;;;;;;;;;;5244179;28;20030;-70
2023/03/09 01:16:51;;;;;;;19.93;16.53;;;;;;;;;;5243277;28;20030;-70
2023/03/09 01:19:22;;;;;;;22.43;18.03;;;;;;;;;;5243892;28;20100;-71
2023/03/09 01:21:53;;;;;;;21.27;17.07;;;;;;;;;;5242983;28;20017;-70
2023/03/09 01:24:25;;;;;;;19.47;16.50;;;;;;;;;;5243445;28;20479;-71
2023/03/09 01:26:57;;;;;;;20.27;17.17;;;;;;;;;;5244045;28;20009;-71
2023/03/09 01:29:28;;;;;;;20.37;17.20;;;;;;;;;;5242533;28;20479;-71
2023/03/09 01:31:59;;;;;;;21.93;16.87;;;;;;;;;;5243687;28;20025;-71
2023/03/09 01:34:30;;;;;;;20.27;16.37;;;;;;;;;;5243208;28;20021;-72
2023/03/09 01:37:02;;;;;;;19.27;16.33;;;;;;;;;;5243118;28;20021;-72
2023/03/09 01:39:33;;;;;;;21.20;16.70;;;;;;;;;;5243260;28;20019;-72
2023/03/09 01:42:04;;;;;;;19.17;15.90;;;;;;;;;;5243726;28;20167;-72
2023/03/09 01:44:35;;;;;;;19.13;16.07;;;;;;;;;;5242247;28;20021;-72
2023/03/09 01:47:06;;;;;;;20.80;16.03;;;;;;;;;;5243532;28;20025;-72
2023/03/09 01:49:37;;;;;;;21.60;17.40;;;;;;;;;;5242366;28;20029;-72
2023/03/09 01:52:17;;;;;;;20.35;16.05;;;;;;;;;;5243091;28;20191;-72
2023/03/09 01:55:00;;;;;;;19.07;16.80;;;;;;;;;;5242824;28;20076;-72
2023/03/09 01:58:07;;;;;;;20.07;16.53;;;;;;;;;;5241995;28;20026;-71
2023/03/09 02:00:40;;;;;;;18.23;14.93;;;;;;;;;;5199560;28;20026;-72
2023/03/09 02:03:15;;;;;;;21.47;17.10;;;;;;;;;;5236733;28;20491;-71
2023/03/09 02:05:51;;;;;;;19.57;16.43;;;;;;;;;;5242055;28;20334;-71
2023/03/09 02:08:24;;;;;;;19.70;16.33;;;;;;;;;;5243048;28;20021;-72
2023/03/09 02:10:57;;;;;;;20.40;16.63;;;;;;;;;;5242479;28;20384;-72
2023/03/09 02:13:30;;;;;;;21.53;17.67;;;;;;;;;;5242642;28;20527;-72
2023/03/09 02:16:01;;;;;;;22.57;17.60;;;;;;;;;;5242913;28;20021;-72
2023/03/09 02:18:33;;;;;;;20.80;17.60;;;;;;;;;;5241352;28;20460;-72
2023/03/09 02:21:20;;;;;;;21.67;18.13;;;;;;;;;;5242951;28;20444;-72
2023/03/09 02:24:10;;;;;;;21.23;17.40;;;;;;;;;;5242464;28;20045;-71
2023/03/09 02:26:44;;;;;;;22.33;17.67;;;;;;;;;;5241488;28;20021;-71
2023/03/09 02:29:16;;;;;;;21.73;18.00;;;;;;;;;;5243053;28;20014;-70
2023/03/09 02:31:47;;;;;;;24.43;19.07;;;;;;;;;;5241465;28;20087;-70
2023/03/09 02:34:18;;;;;;;23.60;18.60;;;;;;;;;;5242890;28;20025;-70
2023/03/09 02:36:49;;;;;;;22.40;18.07;;;;;;;;;;5242142;28;20101;-71
2023/03/09 02:39:30;;;;;;;22.70;18.10;;;;;;;;;;5241367;28;20029;-70
2023/03/09 02:42:02;;;;;;;23.10;18.13;;;;;;;;;;5242313;28;20014;-70
2023/03/09 02:44:33;;;;;;;23.63;17.63;;;;;;;;;;5241874;28;20464;-70
2023/03/09 02:47:16;;;;;;;22.50;18.08;;;;;;;;;;5241505;28;20354;-70
2023/03/09 02:49:48;;;;;;;23.13;18.00;;;;;;;;;;5241819;28;20104;-70
2023/03/09 02:52:19;;;;;;;23.10;19.27;;;;;;;;;;5242010;28;20128;-70
2023/03/09 02:54:50;;;;;;;24.10;18.97;;;;;;;;;;5241125;28;20021;-70
2023/03/09 02:57:21;;;;;;;24.17;18.33;;;;;;;;;;5241824;28;20104;-71
2023/03/09 02:59:52;;;;;;;22.83;18.40;;;;;;;;;;5241322;28;20538;-71
2023/03/09 03:02:24;;;;;;;26.70;19.87;;;;;;;;;;5241451;28;20053;-71
2023/03/09 03:04:55;;;;;;;22.27;18.13;;;;;;;;;;5242150;28;20025;-71
2023/03/09 03:07:26;;;;;;;23.23;18.97;;;;;;;;;;5240697;28;20365;-71
2023/03/09 03:09:57;;;;;;;25.50;19.93;;;;;;;;;;5241921;28;20040;-71
2023/03/09 03:12:28;;;;;;;24.50;19.03;;;;;;;;;;5241201;28;20024;-70
2023/03/09 03:15:00;;;;;;;23.90;18.83;;;;;;;;;;5241136;28;20021;-70
2023/03/09 03:17:31;;;;;;;26.33;18.97;;;;;;;;;;5240838;28;20018;-69
2023/03/09 03:20:03;;;;;;;24.23;18.63;;;;;;;;;;5241715;28;20100;-70
2023/03/09 03:22:36;;;;;;;25.47;19.73;;;;;;;;;;5240375;28;20063;-70
2023/03/09 03:25:07;;;;;;;26.80;21.17;;;;;;;;;;5241618;28;20025;-70
2023/03/09 03:27:38;;;;;;;25.53;20.83;;;;;;;;;;5241240;28;20368;-70
2023/03/09 03:30:11;;;;;;;25.97;19.27;;;;;;;;;;5240763;28;20029;-70
2023/03/09 03:32:43;;;;;;;25.77;19.70;;;;;;;;;;5240845;28;20029;-70
2023/03/09 03:35:14;;;;;;;26.90;19.03;;;;;;;;;;5240617;28;20518;-70
2023/03/09 03:37:45;;;;;;;26.37;20.60;;;;;;;;;;5241049;28;20036;-70
2023/03/09 03:40:16;;;;;;;25.27;19.97;;;;;;;;;;5241220;28;20024;-70
2023/03/09 03:42:47;;;;;;;26.23;19.80;;;;;;;;;;5239928;28;20384;-70
2023/03/09 03:45:19;;;;;;;31.20;22.93;;;;;;;;;;5241332;28;20472;-71
2023/03/09 03:47:50;;;;;;;28.07;22.03;;;;;;;;;;5240973;28;20026;-71
2023/03/09 03:50:21;;;;;;;28.00;21.13;;;;;;;;;;5240220;28;20077;-71
2023/03/09 03:52:53;;;;;;;29.20;22.87;;;;;;;;;;5240692;28;20072;-70
2023/03/09 03:55:24;;;;;;;29.37;22.53;;;;;;;;;;5240869;28;20159;-70
2023/03/09 03:57:55;;;;;;;32.83;23.10;;;;;;;;;;5240406;28;20021;-71
2023/03/09 04:00:26;;;;;;;28.97;22.17;;;;;;;;;;5240341;28;20137;-71
2023/03/09 04:02:58;;;;;;;31.23;22.67;;;;;;;;;;5240852;28;20018;-71
2023/03/09 04:05:29;;;;;;;30.27;23.43;;;;;;;;;;5239829;28;20017;-71
2023/03/09 04:08:00;;;;;;;29.67;22.43;;;;;;;;;;5240903;28;20036;-70
2023/03/09 04:10:31;;;;;;;32.27;23.13;;;;;;;;;;5239401;28;20022;-70
2023/03/09 04:13:03;;;;;;;31.97;24.70;;;;;;;;;;5240695;28;20040;-70
2023/03/09 04:15:34;;;;;;;41.40;28.03;;;;;;;;;;5240146;28;20017;-70
2023/03/09 04:18:07;;;;;;;31.30;23.67;;;;;;;;;;5240048;28;20483;-70
2023/03/09 04:20:38;;;;;;;33.47;24.48;;;;;;;;;;5240213;28;20400;-71
2023/03/09 04:23:10;;;;;;;35.80;24.70;;;;;;;;;;5240656;28;20026;-70
2023/03/09 04:25:41;;;;;;;34.37;24.27;;;;;;;;;;5239256;28;20029;-70
2023/03/09 04:28:12;;;;;;;35.30;25.37;;;;;;;;;;5240586;28;20029;-70
2023/03/09 04:30:43;;;;;;;34.10;24.90;;;;;;;;;;5240120;28;20064;-70
2023/03/09 04:33:15;;;;;;;33.63;25.20;;;;;;;;;;5240005;28;20041;-70
2023/03/09 04:35:46;;;;;;;36.00;25.27;;;;;;;;;;5239907;28;20021;-70
2023/03/09 04:38:17;;;;;;;36.13;26.13;;;;;;;;;;5240497;28;20457;-70
2023/03/09 04:40:48;;;;;;;38.50;27.50;;;;;;;;;;5239313;28;20461;-70
2023/03/09 04:43:20;;;;;;;39.83;27.00;;;;;;;;;;5240245;28;20026;-70
2023/03/09 04:45:51;;;;;;;37.56;26.10;;;;;;;;;;5239334;28;20017;-71
2023/03/09 04:48:22;;;;;;;40.67;28.20;;;;;;;;;;5240109;28;20105;-70
2023/03/09 04:50:53;;;;;;;39.23;27.83;;;;;;;;;;5239967;28;20049;-71
2023/03/09 04:53:24;;;;;;;41.30;28.63;;;;;;;;;;5239128;28;20063;-71
2023/03/09 04:55:55;;;;;;;39.47;27.50;;;;;;;;;;5240334;28;20033;-70
2023/03/09 04:58:27;;;;;;;40.93;28.60;;;;;;;;;;5239917;28;20040;-72
2023/03/09 05:00:58;;;;;;;41.87;28.17;;;;;;;;;;5239378;28;20028;-71
2023/03/09 05:03:29;;;;;;;43.03;28.03;;;;;;;;;;5239950;28;20037;-70
2023/03/09 05:06:00;;;;;;;41.23;28.00;;;;;;;;;;5240382;28;20049;-70
2023/03/09 05:08:32;;;;;;;47.67;31.40;;;;;;;;;;5238953;28;20026;-70
2023/03/09 05:11:03;;;;;;;44.47;28.93;;;;;;;;;;5240083;28;20100;-70
2023/03/09 05:13:34;;;;;;;43.50;30.30;;;;;;;;;;5238723;28;20033;-71
2023/03/09 05:16:09;;;;;;;45.80;31.10;;;;;;;;;;5239953;28;20053;-71
2023/03/09 05:18:40;;;;;;;42.47;28.35;;;;;;;;;;5239297;28;20029;-71
2023/03/09 05:21:11;;;;;;;39.77;28.83;;;;;;;;;;5239440;28;20024;-70
2023/03/09 05:23:43;;;;;;;44.60;30.10;;;;;;;;;;5239297;28;20075;-71
2023/03/09 05:26:15;;;;;;;42.20;29.43;;;;;;;;;;5240134;28;20025;-71
2023/03/09 05:28:48;;;;;;;52.63;32.77;;;;;;;;;;5238657;28;20379;-70
2023/03/09 05:31:19;;;;;;;52.23;33.33;;;;;;;;;;5239699;28;20018;-70
2023/03/09 05:33:51;;;;;;;49.67;32.17;;;;;;;;;;5239605;28;20048;-71
2023/03/09 05:36:24;;;;;;;51.93;34.37;;;;;;;;;;5238613;28;20022;-71
2023/03/09 05:38:55;;;;;;;47.33;31.70;;;;;;;;;;5240563;28;20053;-71
2023/03/09 05:41:26;;;;;;;45.60;29.70;;;;;;;;;;5243329;28;20049;-71
2023/03/09 05:44:00;;;;;;;47.03;29.97;;;;;;;;;;5242592;28;20061;-71
2023/03/09 05:46:31;;;;;;;49.13;32.50;;;;;;;;;;5243068;28;20460;-71
2023/03/09 05:49:03;;;;;;;53.63;35.70;;;;;;;;;;5242586;28;20052;-72
2023/03/09 05:51:34;;;;;;;52.67;34.20;;;;;;;;;;5242440;28;20179;-71
2023/03/09 05:54:05;;;;;;;49.23;31.30;;;;;;;;;;5243445;28;20100;-72
2023/03/09 05:56:36;;;;;;;48.27;32.87;;;;;;;;;;5241883;28;20101;-71
2023/03/09 05:59:07;;;;;;;53.40;33.30;;;;;;;;;;5243300;28;20080;-71
2023/03/09 06:01:39;;;;;;;46.37;31.13;;;;;;;;;;5242785;28;20048;-71
2023/03/09 06:04:10;;;;;;;48.07;32.90;;;;;;;;;;5242291;28;20018;-72
2023/03/09 06:06:41;;;;;;;53.50;34.40;;;;;;;;;;5242373;28;20431;-71
2023/03/09 06:09:12;;;;;;;47.60;32.20;;;;;;;;;;5242896;28;20037;-72
2023/03/09 06:11:43;;;;;;;51.87;32.40;;;;;;;;;;5241464;28;20071;-72
2023/03/09 06:14:15;;;;;;;51.07;33.77;;;;;;;;;;5242974;28;20380;-72
2023/03/09 06:16:46;;;;;;;54.13;33.70;;;;;;;;;;5242381;28;20048;-71
2023/03/09 06:19:17;;;;;;;52.57;33.10;;;;;;;;;;5242194;28;20025;-71
2023/03/09 06:21:48;;;;;;;50.47;33.37;;;;;;;;;;5241927;28;20026;-71
2023/03/09 06:24:20;;;;;;;55.27;34.70;;;;;;;;;;5241438;28;20018;-71
2023/03/09 06:26:51;;;;;;;49.10;32.93;;;;;;;;;;5242193;28;20100;-71
2023/03/09 06:29:22;;;;;;;50.67;32.37;;;;;;;;;;5242231;28;20464;-71
2023/03/09 06:31:53;;;;;;;43.80;30.33;;;;;;;;;;5241481;28;20052;-71
2023/03/09 06:34:28;;;;;;;46.83;31.13;;;;;;;;;;5241819;28;20067;-71
2023/03/09 06:36:59;;;;;;;51.33;32.97;;;;;;;;;;5242333;28;20112;-70
2023/03/09 06:39:30;;;;;;;49.83;32.97;;;;;;;;;;5241206;28;20431;-71
2023/03/09 06:42:01;;;;;;;47.33;31.37;;;;;;;;;;5242316;28;20079;-71
2023/03/09 06:44:32;;;;;;;51.03;32.40;;;;;;;;;;5241849;28;20036;-71
2023/03/09 06:47:03;;;;;;;46.00;31.80;;;;;;;;;;5241199;28;20017;-72
2023/03/09 06:49:35;;;;;;;45.87;31.67;;;;;;;;;;5241374;28;20017;-71
2023/03/09 06:52:06;;;;;;;49.17;33.20;;;;;;;;;;5240028;28;20113;-71
2023/03/09 06:54:38;;;;;;;47.63;31.83;;;;;;;;;;5241433;28;20025;-71
2023/03/09 06:57:09;;;;;;;46.77;31.27;;;;;;;;;;5242117;28;20022;-71
2023/03/09 06:59:41;;;;;;;46.97;31.87;;;;;;;;;;5240659;28;20035;-70
2023/03/09 07:02:13;;;;;;;47.73;30.97;;;;;;;;;;5242043;28;20021;-71
2023/03/09 07:04:45;;;;;;;49.10;32.20;;;;;;;;;;5240741;28;20025;-71
2023/03/09 07:07:18;;;;;;;46.77;31.43;;;;;;;;;;5240660;28;20021;-71
2023/03/09 07:09:49;;;;;;;47.97;33.10;;;;;;;;;;5240618;28;20078;-71
2023/03/09 07:12:20;;;;;;;45.13;30.20;;;;;;;;;;5240815;28;20531;-71
2023/03/09 07:14:51;;;;;;;47.43;31.93;;;;;;;;;;5240073;28;20033;-72
2023/03/09 07:17:23;;;;;;;45.63;30.60;;;;;;;;;;5241418;28;20460;-72
2023/03/09 07:19:54;;;;;;;43.77;29.70;;;;;;;;;;5241128;28;20021;-72
2023/03/09 07:22:25;;;;;;;45.60;29.83;;;;;;;;;;5240040;28;20017;-73
2023/03/09 07:24:57;;;;;;;48.33;30.23;;;;;;;;;;5241523;28;20044;-72
2023/03/09 07:27:28;;;;;;;46.87;30.50;;;;;;;;;;5240281;28;20096;-74
2023/03/09 07:29:59;;;;;;;47.83;30.50;;;;;;;;;;5241499;28;20100;-73
2023/03/09 07:32:30;;;;;;;49.13;31.93;;;;;;;;;;5240843;28;20029;-73
2023/03/09 07:35:01;;;;;;;49.97;32.97;;;;;;;;;;5240450;28;20029;-72
2023/03/09 07:37:32;;;;;;;47.13;31.83;;;;;;;;;;5240522;28;20022;-73
2023/03/09 07:40:04;;;;;;;51.23;31.57;;;;;;;;;;5240986;28;20079;-72
2023/03/09 07:42:35;;;;;;;49.03;32.90;;;;;;;;;;5240016;28;20044;-72
2023/03/09 07:45:07;;;;;;;48.50;30.27;;;;;;;;;;5240904;28;20028;-73
2023/03/09 07:47:38;;;;;;;44.90;29.43;;;;;;;;;;5240189;28;20049;-73
2023/03/09 07:50:09;;;;;;;45.37;30.57;;;;;;;;;;5240615;28;20033;-73
2023/03/09 07:52:41;;;;;;;45.60;30.23;;;;;;;;;;5240091;28;20083;-73
2023/03/09 07:55:13;;;;;;;48.43;31.53;;;;;;;;;;5240967;28;20193;-72
2023/03/09 07:57:45;;;;;;;44.87;29.37;;;;;;;;;;5239527;28;20111;-72
2023/03/09 08:00:20;;;;;;;49.80;32.80;;;;;;;;;;5241106;28;20416;-73
2023/03/09 08:02:51;;;;;;;47.90;30.73;;;;;;;;;;5239682;28;20045;-73
2023/03/09 08:05:22;;;;;;;49.60;32.87;;;;;;;;;;5240416;28;20028;-73
2023/03/09 08:07:54;;;;;;;47.63;32.17;;;;;;;;;;5240419;28;20456;-73
2023/03/09 08:10:25;;;;;;;46.27;30.63;;;;;;;;;;5239412;28;20491;-73
2023/03/09 08:12:56;;;;;;;47.67;31.27;;;;;;;;;;5240524;28;20052;-73
2023/03/09 08:15:27;;;;;;;47.20;31.36;;;;;;;;;;5239976;28;20102;-74
2023/03/09 08:17:58;;;;;;;44.53;29.37;;;;;;;;;;5240065;28;20022;-74
2023/03/09 08:20:30;;;;;;;46.90;30.87;;;;;;;;;;5239659;28;20103;-73
2023/03/09 08:23:02;;;;;;;41.17;28.47;;;;;;;;;;5239947;28;20136;-72
2023/03/09 08:25:34;;;;;;;46.60;30.42;;;;;;;;;;5239339;28;20372;-73
2023/03/09 08:28:05;;;;;;;43.90;29.27;;;;;;;;;;5240364;28;20021;-73
2023/03/09 08:30:38;;;;;;;47.80;31.27;;;;;;;;;;5239073;28;20010;-74
2023/03/09 08:33:09;;;;;;;46.17;30.08;;;;;;;;;;5240196;28;20025;-74
2023/03/09 08:35:40;;;;;;;44.08;30.35;;;;;;;;;;5239958;28;20025;-74
2023/03/09 08:38:12;;;;;;;44.12;30.02;;;;;;;;;;5239976;28;20100;-74
2023/03/09 08:40:43;;;;;;;45.55;29.88;;;;;;;;;;5240153;28;20040;-74
2023/03/09 08:43:15;;;;;;;46.63;29.73;;;;;;;;;;5240275;28;20120;-74
2023/03/09 08:45:46;;;;;;;49.28;30.95;;;;;;;;;;5239375;28;20017;-74
2023/03/09 08:48:17;;;;;;;47.13;30.02;;;;;;;;;;5240583;28;20079;-75
2023/03/09 08:50:49;;;;;;;47.85;30.83;;;;;;;;;;5239568;28;20042;-74
2023/03/09 08:53:20;;;;;;;43.67;28.42;;;;;;;;;;5239258;28;20026;-75
2023/03/09 08:55:51;;;;;;;40.70;27.35;;;;;;;;;;5239803;28;20024;-74
2023/03/09 08:58:22;;;;;;;45.80;29.67;;;;;;;;;;5239811;28;20403;-74
2023/03/09 09:00:54;;;;;;;45.42;29.02;;;;;;;;;;5239060;28;20022;-74
2023/03/09 09:03:25;;;;;;;41.22;27.38;;;;;;;;;;5239525;28;20377;-74
2023/03/09 09:06:01;;;;;;;48.10;29.48;;;;;;;;;;5239009;28;20723;-74
2023/03/09 09:08:33;;;;;;;46.03;29.63;;;;;;;;;;5237498;28;20467;-74
2023/03/09 09:11:05;;;;;;;43.35;28.70;;;;;;;;;;5237994;28;20080;-73
2023/03/09 09:13:39;;;;;;;43.80;28.20;;;;;;;;;;5236673;28;20369;-72
2023/03/09 09:16:11;;;;;;;45.97;28.20;;;;;;;;;;5242021;28;20025;-73
2023/03/09 09:18:43;;;;;;;42.40;28.15;;;;;;;;;;5241554;28;20100;-74
2023/03/09 09:21:14;;;;;;;44.80;29.42;;;;;;;;;;5242270;28;20559;-73
2023/03/09 09:23:46;;;;;;;41.67;27.58;;;;;;;;;;5243386;28;20072;-73
2023/03/09 09:26:17;;;;;;;45.97;29.15;;;;;;;;;;5243990;28;20096;-73
2023/03/09 09:28:48;;;;;;;44.38;28.40;;;;;;;;;;5242502;28;20021;-73
2023/03/09 09:31:20;;;;;;;45.38;28.90;;;;;;;;;;5243600;28;20100;-73
2023/03/09 09:33:51;;;;;;;43.45;28.13;;;;;;;;;;5242685;28;20045;-74
2023/03/09 09:36:24;;;;;;;42.75;27.92;;;;;;;;;;5243565;28;20014;-73
2023/03/09 09:38:56;;;;;;;41.25;25.75;;;;;;;;;;5243768;28;20041;-73
2023/03/09 09:41:38;;;;;;;44.78;28.02;;;;;;;;;;5242474;28;20048;-73
2023/03/09 09:44:18;;;;;;;44.70;29.25;;;;;;;;;;5243353;28;20017;-73
2023/03/09 09:46:51;;;;;;;39.97;25.92;;;;;;;;;;5242974;28;20018;-74
2023/03/09 09:49:24;;;;;;;43.20;28.40;;;;;;;;;;5242507;28;20030;-74
2023/03/09 09:51:58;;;;;;;42.85;29.63;;;;;;;;;;5243125;28;20042;-73
2023/03/09 09:54:39;;;;;;;48.72;30.08;;;;;;;;;;5242736;28;20048;-73
2023/03/09 09:57:15;;;;;;;42.70;28.52;;;;;;;;;;5242737;28;20419;-74
2023/03/09 10:00:00;;;;;;;41.10;27.05;;;;;;;;;;5242837;28;20032;-73
2023/03/09 10:02:37;;;;;;;45.65;28.88;;;;;;;;;;5242079;28;20526;-73
2023/03/09 10:05:26;;;;;;;45.47;29.42;;;;;;;;;;5243194;28;20067;-73
2023/03/09 10:08:01;;;;;;;48.38;31.45;;;;;;;;;;5243225;28;20026;-73
2023/03/09 10:10:32;;;;;;;43.50;29.48;;;;;;;;;;5241653;28;20143;-73
2023/03/09 10:13:08;;;;;;;45.28;30.30;;;;;;;;;;5243096;28;20124;-73
2023/03/09 10:15:39;;;;;;;45.65;29.45;;;;;;;;;;5242307;28;20025;-73
2023/03/09 10:18:13;;;;;;;44.65;29.63;;;;;;;;;;5242382;28;20027;-73
2023/03/09 10:20:46;;;;;;;42.75;28.92;;;;;;;;;;5242476;28;20061;-73
2023/03/09 10:23:17;;;;;;;42.75;29.20;;;;;;;;;;5242112;28;20087;-73
2023/03/09 10:25:50;;;;;;;45.34;29.08;;;;;;;;;;5242059;28;20033;-74
2023/03/09 10:28:24;;;;;;;45.60;30.25;;;;;;;;;;5242493;28;20099;-73
2023/03/09 10:30:58;;;;;;;46.13;30.63;;;;;;;;;;5241895;28;20018;-73
2023/03/09 10:33:45;;;;;;;46.67;30.40;;;;;;;;;;5242023;28;20030;-73
2023/03/09 10:36:36;;;;;;;45.42;31.83;;;;;;;;;;5242479;28;20448;-73
2023/03/09 10:39:13;;;;;;;44.50;29.33;;;;;;;;;;5241268;28;20552;-74
2023/03/09 10:41:44;;;;;;;40.90;28.10;;;;;;;;;;5241973;28;20029;-73
2023/03/09 10:44:18;;;;;;;42.72;28.90;;;;;;;;;;5241597;28;20045;-73
2023/03/09 10:46:54;;;;;;;43.40;29.55;;;;;;;;;;5241838;28;20096;-73
2023/03/09 10:49:26;;;;;;;46.22;31.00;;;;;;;;;;5241950;28;20151;-73
2023/03/09 10:52:02;;;;;;;41.05;28.88;;;;;;;;;;5241076;28;20116;-73
2023/03/09 10:54:38;;;;;;;39.83;27.48;;;;;;;;;;5241697;28;20080;-72
2023/03/09 10:57:27;;;;;;;40.83;26.90;;;;;;;;;;5242016;28;20032;-72
2023/03/09 11:00:06;;;;;;;40.63;28.52;;;;;;;;;;5241145;28;20029;-72
2023/03/09 11:02:37;;;;;;;38.60;26.65;;;;;;;;;;5241623;28;20028;-72
2023/03/09 11:05:21;;;;;;;35.83;25.77;;;;;;;;;;5241928;28;20030;-72
2023/03/09 11:07:54;;;;;;;37.45;24.98;;;;;;;;;;5241981;28;20029;-71
2023/03/09 11:10:25;;;;;;;36.80;25.63;;;;;;;;;;5241667;28;20461;-74
2023/03/09 11:12:57;;;;;;;34.67;24.13;;;;;;;;;;5240954;28;20053;-73
2023/03/09 11:15:30;;;;;;;37.60;24.70;;;;;;;;;;5241119;28;20423;-72
2023/03/09 11:18:02;;;;;;;36.08;25.30;;;;;;;;;;5241711;28;20025;-72
2023/03/09 11:20:34;;;;;;;38.53;25.52;;;;;;;;;;5240260;28;20078;-72
2023/03/09 11:23:17;;;;;;;38.03;26.92;;;;;;;;;;5241792;28;20489;-72
2023/03/09 11:26:07;;;;;;;37.42;25.55;;;;;;;;;;5240973;28;20021;-72
2023/03/09 11:28:57;;;;;;;35.80;24.20;;;;;;;;;;5240038;28;20024;-72
2023/03/09 11:31:35;;;;;;;38.65;25.48;;;;;;;;;;5240933;28;20033;-72
2023/03/09 11:34:07;;;;;;;38.75;26.05;;;;;;;;;;5240394;28;20443;-73
2023/03/09 11:36:40;;;;;;;39.53;26.17;;;;;;;;;;5240105;28;20079;-73
2023/03/09 11:39:16;;;;;;;40.65;27.17;;;;;;;;;;5241211;28;20013;-73
2023/03/09 11:41:49;;;;;;;38.03;26.75;;;;;;;;;;5240185;28;20112;-73
2023/03/09 11:44:20;;;;;;;35.95;25.10;;;;;;;;;;5240819;28;20014;-72
2023/03/09 11:46:53;;;;;;;37.24;25.62;;;;;;;;;;5240891;28;20021;-72
2023/03/09 11:49:26;;;;;;;39.80;26.27;;;;;;;;;;5239892;28;20013;-73
2023/03/09 11:51:58;;;;;;;41.35;27.05;;;;;;;;;;5235713;28;20041;-72
2023/03/09 11:54:29;;;;;;;40.78;27.13;;;;;;;;;;5257986;28;20055;-73
2023/03/09 11:57:04;;;;;;;38.38;24.48;;;;;;;;;;5261381;28;20029;-72
2023/03/09 11:59:39;;;;;;;38.30;25.35;;;;;;;;;;5260801;28;20048;-72
2023/03/09 12:02:13;;;;;;;40.38;26.88;;;;;;;;;;5260961;28;20372;-72
2023/03/09 12:04:46;;;;;;;36.70;25.33;;;;;;;;;;5261589;28;20371;-72
2023/03/09 12:07:28;;;;;;;36.78;24.92;;;;;;;;;;5261570;28;20052;-73
2023/03/09 12:10:07;;;;;;;35.78;24.63;;;;;;;;;;5260304;28;20029;-73
2023/03/09 12:12:48;;;;;;;37.42;24.83;;;;;;;;;;5260954;28;20020;-72
2023/03/09 12:15:20;;;;;;;39.15;26.30;;;;;;;;;;5260908;28;20017;-72
2023/03/09 12:17:52;;;;;;;39.54;27.00;;;;;;;;;;5260439;28;20083;-72
2023/03/09 12:20:26;;;;;;;38.45;25.25;;;;;;;;;;5260417;28;20021;-73
2023/03/09 12:22:57;;;;;;;40.08;26.42;;;;;;;;;;5260268;28;20045;-72
2023/03/09 12:25:29;;;;;;;37.08;25.35;;;;;;;;;;5260873;28;20413;-73
2023/03/09 12:28:01;;;;;;;36.10;24.60;;;;;;;;;;5261142;28;20020;-72
2023/03/09 12:30:41;;;;;;;36.15;24.88;;;;;;;;;;5259484;28;20043;-73
2023/03/09 12:33:12;;;;;;;;;;;;;;;;;;5261613;28;20028;-73
2023/03/09 12:35:46;;;;;;;35.05;23.60;;;;;;;;;;5259922;28;20022;-73
2023/03/09 12:38:20;;;;;;;38.10;25.08;;;;;;;;;;5260222;28;20045;-72
2023/03/09 12:40:52;;;;;;;40.17;25.20;;;;;;;;;;5260873;28;20025;-73
2023/03/09 12:43:23;;;;;;;33.22;23.55;;;;;;;;;;5260335;28;20028;-73
2023/03/09 12:45:54;;;;;;;33.33;23.13;;;;;;;;;;5260009;28;20013;-73
2023/03/09 12:48:27;;;;;;;35.67;23.13;;;;;;;;;;5260260;28;20025;-73
2023/03/09 12:51:10;;;;;;;41.25;26.52;;;;;;;;;;5263602;28;20532;-73
2023/03/09 12:53:58;;;;;;;34.38;23.10;;;;;;;;;;5264399;28;20476;-72
2023/03/09 12:56:29;;;;;;;33.78;22.90;;;;;;;;;;5264369;28;20029;-73
2023/03/09 12:59:07;;;;;;;33.65;23.25;;;;;;;;;;5264319;28;20059;-72
2023/03/09 13:01:38;;;;;;;32.80;22.90;;;;;;;;;;5264306;28;20066;-72
2023/03/09 13:04:28;;;;;;;33.60;22.38;;;;;;;;;;5264985;28;20032;-72
2023/03/09 13:07:00;;;;;;;36.95;24.55;;;;;;;;;;5263860;28;20039;-71
2023/03/09 13:09:31;;;;;;;34.28;23.38;;;;;;;;;;5264239;28;20025;-71
2023/03/09 13:12:23;;;;;;;32.94;21.70;;;;;;;;;;5262809;28;20095;-71
2023/03/09 13:14:57;;;;;;;29.13;19.95;;;;;;;;;;5256962;28;20041;-71
2023/03/09 13:17:34;;;;;;;32.15;21.15;;;;;;;;;;5264139;28;20032;-72
2023/03/09 13:20:40;;;;;;;30.13;19.45;;;;;;;;;;5262785;28;20056;-73
2023/03/09 13:23:14;;;;;;;29.80;18.83;;;;;;;;;;5242796;28;20029;-70
2023/03/09 13:25:47;;;;;;;28.90;18.80;;;;;;;;;;5264231;28;20025;-71
2023/03/09 13:28:21;;;;;;;30.33;20.10;;;;;;;;;;5263801;28;20029;-72
2023/03/09 13:30:54;;;;;;;29.05;19.10;;;;;;;;;;5264441;28;20029;-72
2023/03/09 13:33:28;;;;;;;26.10;17.70;;;;;;;;;;5263069;28;20044;-72
2023/03/09 13:36:07;;;;;;;26.15;18.20;;;;;;;;;;5264806;28;20484;-72
2023/03/09 13:38:39;;;;;;;27.92;17.45;;;;;;;;;;5263958;28;20017;-73
2023/03/09 13:41:25;;;;;;;25.65;16.92;;;;;;;;;;5263527;28;20028;-73
2023/03/09 13:43:58;;;;;;;27.30;17.45;;;;;;;;;;5264930;28;20468;-73
2023/03/09 13:46:31;;;;;;;24.85;15.80;;;;;;;;;;5263758;28;20013;-72
2023/03/09 13:49:07;;;;;;;25.33;16.65;;;;;;;;;;5263408;28;20017;-72
2023/03/09 13:51:41;;;;;;;22.92;15.25;;;;;;;;;;5263472;28;20060;-73
2023/03/09 13:54:29;;;;;;;26.08;16.67;;;;;;;;;;5263227;28;20037;-72
2023/03/09 13:57:01;;;;;;;24.75;16.17;;;;;;;;;;5264278;28;20021;-72
2023/03/09 13:59:48;;;;;;;19.77;14.40;;;;;;;;;;5263143;28;20017;-72
2023/03/09 14:02:19;;;;;;;21.23;13.57;;;;;;;;;;5262795;28;20021;-72
2023/03/09 14:05:02;;;;;;;23.35;13.70;;;;;;;;;;5263621;28;20026;-72
2023/03/09 14:07:52;;;;;;;20.70;12.55;;;;;;;;;;5263115;28;20047;-72
2023/03/09 14:10:34;;;;;;;16.60;11.63;;;;;;;;;;5262261;28;20025;-73
2023/03/09 14:13:11;;;;;;;18.58;12.60;;;;;;;;;;5263601;28;20150;-73
2023/03/09 14:15:58;;;;;;;19.25;13.18;;;;;;;;;;5262555;28;20499;-72
2023/03/09 14:18:32;;;;;;;22.00;15.70;;;;;;;;;;5262773;28;20020;-72
2023/03/09 14:21:05;;;;;;;23.17;15.35;;;;;;;;;;5263213;28;20518;-72
2023/03/09 14:23:41;;;;;;;22.73;14.77;;;;;;;;;;5262044;28;20109;-73
2023/03/09 14:26:12;;;;;;;22.75;14.38;;;;;;;;;;5263466;28;20033;-72
2023/03/09 14:28:57;;;;;;;23.40;15.55;;;;;;;;;;5262603;28;20021;-72
2023/03/09 14:31:28;;;;;;;24.15;14.88;;;;;;;;;;5261796;28;20111;-73
2023/03/09 14:34:02;;;;;;;19.17;13.45;;;;;;;;;;5263197;28;20436;-72
2023/03/09 14:36:38;;;;;;;24.52;15.48;;;;;;;;;;5261589;28;20017;-72
2023/03/09 14:39:23;;;;;;;23.60;14.73;;;;;;;;;;5263031;28;20023;-74
2023/03/09 14:42:07;;;;;;;21.73;14.40;;;;;;;;;;5262988;28;20086;-73
2023/03/09 14:44:42;;;;;;;21.05;14.23;;;;;;;;;;5261749;28;20033;-73
2023/03/09 14:47:17;;;;;;;22.30;13.48;;;;;;;;;;5262941;28;20498;-72
2023/03/09 14:49:50;;;;;;;21.33;13.80;;;;;;;;;;5262587;28;20020;-72
2023/03/09 14:52:22;;;;;;;18.95;12.80;;;;;;;;;;5261937;28;20049;-73
2023/03/09 14:54:53;;;;;;;19.80;13.18;;;;;;;;;;5262671;28;20044;-73